sensor_id;sensor_type;location;lat;lon;timestamp;temperature;humidity
14471;DHT22;7321;50.802;4.336;2022-08-01T00:00:27;22.60;99.90
14471;DHT22;7321;50.802;4.336;2022-08-01T00:02:53;22.60;99.90
14471;DHT22;7321;50.802;4.336;2022-08-01T00:05:18;22.50;99.90
14471;DHT22;7321;50.802;4.336;2022-08-01T00:07:45;22.60;99.90
14471;DHT22;7321;50.802;4.336;2022-08-01T00:10:13;22.60;99.90
14471;DHT22;7321;50.802;4.336;2022-08-01T00:12:40;22.50;99.90
14471;DHT22;7321;50.802;4.336;2022-08-01T00:15:07;22.40;99.90
14471;DHT22;7321;50.802;4.336;2022-08-01T00:17:34;22.50;99.90
14471;DHT22;7321;50.802;4.336;2022-08-01T00:19:59;22.60;99.90
14471;DHT22;7321;50.802;4.336;2022-08-01T00:22:25;22.60;99.90
14471;DHT22;7321;50.802;4.336;2022-08-01T00:24:51;22.40;99.90
14471;DHT22;7321;50.802;4.336;2022-08-01T00:27:16;22.40;99.90
14471;DHT22;7321;50.802;4.336;2022-08-01T00:29:42;22.40;99.90
14471;DHT22;7321;50.802;4.336;2022-08-01T00:32:08;22.40;99.90
14471;DHT22;7321;50.802;4.336;2022-08-01T00:34:34;22.40;99.90
14471;DHT22;7321;50.802;4.336;2022-08-01T00:37:00;22.50;99.90
14471;DHT22;7321;50.802;4.336;2022-08-01T00:39:25;22.40;99.90
14471;DHT22;7321;50.802;4.336;2022-08-01T00:41:51;22.40;99.90
14471;DHT22;7321;50.802;4.336;2022-08-01T00:44:17;22.60;99.90
14471;DHT22;7321;50.802;4.336;2022-08-01T00:46:43;22.50;99.90
14471;DHT22;7321;50.802;4.336;2022-08-01T00:49:09;22.40;99.90
14471;DHT22;7321;50.802;4.336;2022-08-01T00:51:35;22.30;99.90
14471;DHT22;7321;50.802;4.336;2022-08-01T00:54:01;22.30;99.90
14471;DHT22;7321;50.802;4.336;2022-08-01T00:56:27;22.40;99.90
14471;DHT22;7321;50.802;4.336;2022-08-01T00:58:55;22.60;99.90
14471;DHT22;7321;50.802;4.336;2022-08-01T01:01:21;22.60;99.90
14471;DHT22;7321;50.802;4.336;2022-08-01T01:03:51;22.50;99.90
14471;DHT22;7321;50.802;4.336;2022-08-01T01:06:21;22.30;99.90
14471;DHT22;7321;50.802;4.336;2022-08-01T01:09:09;22.30;99.90
14471;DHT22;7321;50.802;4.336;2022-08-01T01:11:44;22.20;99.90
14471;DHT22;7321;50.802;4.336;2022-08-01T01:14:21;22.20;99.90
14471;DHT22;7321;50.802;4.336;2022-08-01T01:16:49;22.30;99.90
14471;DHT22;7321;50.802;4.336;2022-08-01T01:19:21;22.30;99.90
14471;DHT22;7321;50.802;4.336;2022-08-01T01:24:56;22.20;99.90
14471;DHT22;7321;50.802;4.336;2022-08-01T01:27:42;22.10;99.90
14471;DHT22;7321;50.802;4.336;2022-08-01T01:30:10;21.90;99.90
14471;DHT22;7321;50.802;4.336;2022-08-01T01:32:44;21.80;99.90
14471;DHT22;7321;50.802;4.336;2022-08-01T01:35:16;21.80;99.90
14471;DHT22;7321;50.802;4.336;2022-08-01T01:37:44;21.90;99.90
14471;DHT22;7321;50.802;4.336;2022-08-01T01:40:12;22.00;99.90
14471;DHT22;7321;50.802;4.336;2022-08-01T01:42:39;22.20;99.90
14471;DHT22;7321;50.802;4.336;2022-08-01T01:45:08;22.00;99.90
14471;DHT22;7321;50.802;4.336;2022-08-01T01:47:35;21.80;99.90
14471;DHT22;7321;50.802;4.336;2022-08-01T01:50:02;21.90;99.90
14471;DHT22;7321;50.802;4.336;2022-08-01T01:52:29;22.00;99.90
14471;DHT22;7321;50.802;4.336;2022-08-01T01:54:58;22.00;99.90
14471;DHT22;7321;50.802;4.336;2022-08-01T01:57:24;22.00;99.90
14471;DHT22;7321;50.802;4.336;2022-08-01T01:59:51;22.00;99.90
14471;DHT22;7321;50.802;4.336;2022-08-01T02:02:19;21.90;99.90
14471;DHT22;7321;50.802;4.336;2022-08-01T02:04:46;21.90;99.90
14471;DHT22;7321;50.802;4.336;2022-08-01T02:07:16;22.00;99.90
14471;DHT22;7321;50.802;4.336;2022-08-01T02:09:43;22.00;99.90
14471;DHT22;7321;50.802;4.336;2022-08-01T02:12:12;21.80;99.90
14471;DHT22;7321;50.802;4.336;2022-08-01T02:14:38;21.80;99.90
14471;DHT22;7321;50.802;4.336;2022-08-01T02:17:10;21.90;99.90
14471;DHT22;7321;50.802;4.336;2022-08-01T02:19:37;21.90;99.90
14471;DHT22;7321;50.802;4.336;2022-08-01T02:22:23;21.90;99.90
14471;DHT22;7321;50.802;4.336;2022-08-01T02:27:33;21.60;99.90
14471;DHT22;7321;50.802;4.336;2022-08-01T02:30:03;21.70;99.90
14471;DHT22;7321;50.802;4.336;2022-08-01T02:33:22;21.80;99.90
14471;DHT22;7321;50.802;4.336;2022-08-01T02:35:30;21.70;99.90
14471;DHT22;7321;50.802;4.336;2022-08-01T02:37:58;21.80;99.90
14471;DHT22;7321;50.802;4.336;2022-08-01T02:40:27;21.80;99.90
14471;DHT22;7321;50.802;4.336;2022-08-01T02:42:54;21.80;99.90
14471;DHT22;7321;50.802;4.336;2022-08-01T02:45:25;21.80;99.90
14471;DHT22;7321;50.802;4.336;2022-08-01T02:47:53;21.90;99.90
14471;DHT22;7321;50.802;4.336;2022-08-01T02:50:22;21.90;99.90
14471;DHT22;7321;50.802;4.336;2022-08-01T02:52:50;21.80;99.90
14471;DHT22;7321;50.802;4.336;2022-08-01T02:55:18;21.80;99.90
14471;DHT22;7321;50.802;4.336;2022-08-01T02:57:46;21.90;99.90
14471;DHT22;7321;50.802;4.336;2022-08-01T03:00:16;21.90;99.90
14471;DHT22;7321;50.802;4.336;2022-08-01T03:02:43;22.00;99.90
14471;DHT22;7321;50.802;4.336;2022-08-01T03:05:12;22.00;99.90
14471;DHT22;7321;50.802;4.336;2022-08-01T03:07:39;22.00;99.90
14471;DHT22;7321;50.802;4.336;2022-08-01T03:10:06;22.10;99.90
14471;DHT22;7321;50.802;4.336;2022-08-01T03:12:33;22.10;99.90
14471;DHT22;7321;50.802;4.336;2022-08-01T03:15:01;21.90;99.90
14471;DHT22;7321;50.802;4.336;2022-08-01T03:17:29;21.80;99.90
14471;DHT22;7321;50.802;4.336;2022-08-01T03:19:59;21.70;99.90
14471;DHT22;7321;50.802;4.336;2022-08-01T03:22:29;21.80;99.90
14471;DHT22;7321;50.802;4.336;2022-08-01T03:24:56;21.80;99.90
14471;DHT22;7321;50.802;4.336;2022-08-01T03:27:25;21.60;99.90
14471;DHT22;7321;50.802;4.336;2022-08-01T03:29:52;21.50;99.90
14471;DHT22;7321;50.802;4.336;2022-08-01T03:32:21;21.40;99.90
14471;DHT22;7321;50.802;4.336;2022-08-01T03:34:48;21.30;99.90
14471;DHT22;7321;50.802;4.336;2022-08-01T03:37:20;21.20;99.90
14471;DHT22;7321;50.802;4.336;2022-08-01T03:39:52;21.20;99.90
14471;DHT22;7321;50.802;4.336;2022-08-01T03:42:23;20.90;99.90
14471;DHT22;7321;50.802;4.336;2022-08-01T03:44:54;20.80;99.90
14471;DHT22;7321;50.802;4.336;2022-08-01T03:47:26;20.80;99.90
14471;DHT22;7321;50.802;4.336;2022-08-01T03:49:55;21.00;99.90
14471;DHT22;7321;50.802;4.336;2022-08-01T03:52:22;21.00;99.90
14471;DHT22;7321;50.802;4.336;2022-08-01T03:54:51;21.10;99.90
14471;DHT22;7321;50.802;4.336;2022-08-01T03:57:19;21.10;99.90
14471;DHT22;7321;50.802;4.336;2022-08-01T03:59:46;21.20;99.90
14471;DHT22;7321;50.802;4.336;2022-08-01T04:02:12;21.20;99.90
14471;DHT22;7321;50.802;4.336;2022-08-01T04:04:39;21.20;99.90
14471;DHT22;7321;50.802;4.336;2022-08-01T04:07:05;21.30;99.90
14471;DHT22;7321;50.802;4.336;2022-08-01T04:09:46;21.30;99.90
14471;DHT22;7321;50.802;4.336;2022-08-01T04:12:11;21.30;99.90
14471;DHT22;7321;50.802;4.336;2022-08-01T04:14:38;21.30;99.90
14471;DHT22;7321;50.802;4.336;2022-08-01T04:17:04;21.20;99.90
14471;DHT22;7321;50.802;4.336;2022-08-01T04:19:30;21.20;99.90
14471;DHT22;7321;50.802;4.336;2022-08-01T04:21:55;21.10;99.90
14471;DHT22;7321;50.802;4.336;2022-08-01T04:24:22;21.10;99.90
14471;DHT22;7321;50.802;4.336;2022-08-01T04:26:50;21.00;99.90
14471;DHT22;7321;50.802;4.336;2022-08-01T04:29:18;21.00;99.90
14471;DHT22;7321;50.802;4.336;2022-08-01T04:31:46;21.00;99.90
14471;DHT22;7321;50.802;4.336;2022-08-01T04:34:16;21.00;99.90
14471;DHT22;7321;50.802;4.336;2022-08-01T04:36:43;21.10;99.90
14471;DHT22;7321;50.802;4.336;2022-08-01T04:39:10;21.00;99.90
14471;DHT22;7321;50.802;4.336;2022-08-01T04:41:37;20.90;99.90
14471;DHT22;7321;50.802;4.336;2022-08-01T04:44:04;21.00;99.90
14471;DHT22;7321;50.802;4.336;2022-08-01T04:46:31;21.00;99.90
14471;DHT22;7321;50.802;4.336;2022-08-01T04:48:59;20.80;99.90
14471;DHT22;7321;50.802;4.336;2022-08-01T04:51:25;20.90;99.90
14471;DHT22;7321;50.802;4.336;2022-08-01T04:53:51;20.80;99.90
14471;DHT22;7321;50.802;4.336;2022-08-01T04:56:18;20.70;99.90
14471;DHT22;7321;50.802;4.336;2022-08-01T04:58:46;20.60;99.90
14471;DHT22;7321;50.802;4.336;2022-08-01T05:01:12;20.70;99.90
14471;DHT22;7321;50.802;4.336;2022-08-01T05:03:38;20.70;99.90
14471;DHT22;7321;50.802;4.336;2022-08-01T05:06:04;20.70;99.90
14471;DHT22;7321;50.802;4.336;2022-08-01T05:08:30;20.80;99.90
14471;DHT22;7321;50.802;4.336;2022-08-01T05:10:56;20.90;99.90
14471;DHT22;7321;50.802;4.336;2022-08-01T05:13:24;21.00;99.90
14471;DHT22;7321;50.802;4.336;2022-08-01T05:15:51;21.10;99.90
14471;DHT22;7321;50.802;4.336;2022-08-01T05:18:17;21.10;99.90
14471;DHT22;7321;50.802;4.336;2022-08-01T05:20:44;21.10;99.90
14471;DHT22;7321;50.802;4.336;2022-08-01T05:23:09;21.10;99.90
14471;DHT22;7321;50.802;4.336;2022-08-01T05:25:35;21.20;99.90
14471;DHT22;7321;50.802;4.336;2022-08-01T05:28:01;21.30;99.90
14471;DHT22;7321;50.802;4.336;2022-08-01T05:30:27;21.20;99.90
14471;DHT22;7321;50.802;4.336;2022-08-01T05:32:52;21.30;99.90
14471;DHT22;7321;50.802;4.336;2022-08-01T05:35:18;21.20;99.90
14471;DHT22;7321;50.802;4.336;2022-08-01T05:37:44;21.20;99.90
14471;DHT22;7321;50.802;4.336;2022-08-01T05:40:10;21.20;99.90
14471;DHT22;7321;50.802;4.336;2022-08-01T05:42:36;21.30;99.90
14471;DHT22;7321;50.802;4.336;2022-08-01T05:45:02;21.40;99.90
14471;DHT22;7321;50.802;4.336;2022-08-01T05:47:27;21.50;99.90
14471;DHT22;7321;50.802;4.336;2022-08-01T05:49:53;21.60;99.90
14471;DHT22;7321;50.802;4.336;2022-08-01T05:52:19;21.70;99.90
14471;DHT22;7321;50.802;4.336;2022-08-01T05:54:44;21.70;99.90
14471;DHT22;7321;50.802;4.336;2022-08-01T05:57:10;21.80;99.90
14471;DHT22;7321;50.802;4.336;2022-08-01T05:59:36;21.80;99.90
14471;DHT22;7321;50.802;4.336;2022-08-01T06:02:02;21.90;99.90
14471;DHT22;7321;50.802;4.336;2022-08-01T06:04:27;21.70;99.90
14471;DHT22;7321;50.802;4.336;2022-08-01T06:06:53;21.70;99.90
14471;DHT22;7321;50.802;4.336;2022-08-01T06:09:19;21.70;99.90
14471;DHT22;7321;50.802;4.336;2022-08-01T06:11:45;21.80;99.90
14471;DHT22;7321;50.802;4.336;2022-08-01T06:14:10;21.70;99.90
14471;DHT22;7321;50.802;4.336;2022-08-01T06:16:36;21.70;99.90
14471;DHT22;7321;50.802;4.336;2022-08-01T06:19:02;21.60;99.90
14471;DHT22;7321;50.802;4.336;2022-08-01T06:21:27;21.60;99.90
14471;DHT22;7321;50.802;4.336;2022-08-01T06:23:53;21.70;99.90
14471;DHT22;7321;50.802;4.336;2022-08-01T06:26:20;21.40;99.90
14471;DHT22;7321;50.802;4.336;2022-08-01T06:28:46;21.40;99.90
14471;DHT22;7321;50.802;4.336;2022-08-01T06:31:11;21.70;99.90
14471;DHT22;7321;50.802;4.336;2022-08-01T06:33:39;21.90;99.90
14471;DHT22;7321;50.802;4.336;2022-08-01T06:36:05;22.00;99.90
14471;DHT22;7321;50.802;4.336;2022-08-01T06:38:34;22.10;99.90
14471;DHT22;7321;50.802;4.336;2022-08-01T06:41:02;22.30;99.90
14471;DHT22;7321;50.802;4.336;2022-08-01T06:43:28;22.50;99.90
14471;DHT22;7321;50.802;4.336;2022-08-01T06:45:53;22.60;99.90
14471;DHT22;7321;50.802;4.336;2022-08-01T06:48:19;22.80;99.90
14471;DHT22;7321;50.802;4.336;2022-08-01T06:50:45;22.80;99.90
14471;DHT22;7321;50.802;4.336;2022-08-01T06:53:11;22.80;99.90
14471;DHT22;7321;50.802;4.336;2022-08-01T06:55:37;22.90;99.90
14471;DHT22;7321;50.802;4.336;2022-08-01T06:58:02;23.10;99.90
14471;DHT22;7321;50.802;4.336;2022-08-01T07:00:28;23.10;99.90
14471;DHT22;7321;50.802;4.336;2022-08-01T07:02:56;22.90;99.90
14471;DHT22;7321;50.802;4.336;2022-08-01T07:05:22;23.00;99.90
14471;DHT22;7321;50.802;4.336;2022-08-01T07:07:51;23.10;99.90
14471;DHT22;7321;50.802;4.336;2022-08-01T07:10:17;23.00;99.90
14471;DHT22;7321;50.802;4.336;2022-08-01T07:12:43;23.00;99.90
14471;DHT22;7321;50.802;4.336;2022-08-01T07:15:10;23.10;99.90
14471;DHT22;7321;50.802;4.336;2022-08-01T07:17:37;23.30;99.90
14471;DHT22;7321;50.802;4.336;2022-08-01T07:20:04;23.40;99.90
14471;DHT22;7321;50.802;4.336;2022-08-01T07:22:30;23.30;99.90
14471;DHT22;7321;50.802;4.336;2022-08-01T07:24:56;23.30;99.90
14471;DHT22;7321;50.802;4.336;2022-08-01T07:27:22;23.40;99.90
14471;DHT22;7321;50.802;4.336;2022-08-01T07:29:56;23.50;99.90
14471;DHT22;7321;50.802;4.336;2022-08-01T07:32:22;23.60;99.90
14471;DHT22;7321;50.802;4.336;2022-08-01T07:34:48;23.70;99.90
14471;DHT22;7321;50.802;4.336;2022-08-01T07:37:14;23.70;99.90
14471;DHT22;7321;50.802;4.336;2022-08-01T07:39:40;23.70;99.90
14471;DHT22;7321;50.802;4.336;2022-08-01T07:42:05;23.60;99.90
14471;DHT22;7321;50.802;4.336;2022-08-01T07:44:31;23.60;99.90
14471;DHT22;7321;50.802;4.336;2022-08-01T07:47:01;23.70;99.90
14471;DHT22;7321;50.802;4.336;2022-08-01T07:49:27;23.80;99.90
14471;DHT22;7321;50.802;4.336;2022-08-01T07:51:52;23.90;99.90
14471;DHT22;7321;50.802;4.336;2022-08-01T07:54:19;23.60;99.90
14471;DHT22;7321;50.802;4.336;2022-08-01T07:56:45;23.50;99.90
14471;DHT22;7321;50.802;4.336;2022-08-01T07:59:11;23.50;99.90
14471;DHT22;7321;50.802;4.336;2022-08-01T08:01:37;23.50;99.90
14471;DHT22;7321;50.802;4.336;2022-08-01T08:04:03;23.60;99.90
14471;DHT22;7321;50.802;4.336;2022-08-01T08:06:28;23.60;99.90
14471;DHT22;7321;50.802;4.336;2022-08-01T08:08:54;23.50;99.90
14471;DHT22;7321;50.802;4.336;2022-08-01T08:11:20;23.50;99.90
14471;DHT22;7321;50.802;4.336;2022-08-01T08:13:46;23.30;99.90
14471;DHT22;7321;50.802;4.336;2022-08-01T08:16:11;23.40;99.90
14471;DHT22;7321;50.802;4.336;2022-08-01T08:18:40;23.40;99.90
14471;DHT22;7321;50.802;4.336;2022-08-01T08:21:05;23.60;99.90
14471;DHT22;7321;50.802;4.336;2022-08-01T08:23:31;24.00;99.90
14471;DHT22;7321;50.802;4.336;2022-08-01T08:26:15;24.40;99.90
14471;DHT22;7321;50.802;4.336;2022-08-01T08:28:41;24.80;99.90
14471;DHT22;7321;50.802;4.336;2022-08-01T08:31:07;25.10;99.90
14471;DHT22;7321;50.802;4.336;2022-08-01T08:33:33;25.30;99.90
14471;DHT22;7321;50.802;4.336;2022-08-01T08:35:59;25.30;99.90
14471;DHT22;7321;50.802;4.336;2022-08-01T08:38:25;25.40;99.90
14471;DHT22;7321;50.802;4.336;2022-08-01T08:40:53;25.40;99.90
14471;DHT22;7321;50.802;4.336;2022-08-01T08:43:19;25.20;99.90
14471;DHT22;7321;50.802;4.336;2022-08-01T08:45:45;25.20;99.90
14471;DHT22;7321;50.802;4.336;2022-08-01T08:48:12;25.10;99.90
14471;DHT22;7321;50.802;4.336;2022-08-01T08:50:40;24.90;99.90
14471;DHT22;7321;50.802;4.336;2022-08-01T08:53:09;24.50;99.90
14471;DHT22;7321;50.802;4.336;2022-08-01T08:55:36;24.60;99.90
14471;DHT22;7321;50.802;4.336;2022-08-01T08:58:03;24.70;99.90
14471;DHT22;7321;50.802;4.336;2022-08-01T09:00:32;24.90;99.90
14471;DHT22;7321;50.802;4.336;2022-08-01T09:02:58;25.20;99.90
14471;DHT22;7321;50.802;4.336;2022-08-01T09:05:24;25.50;99.90
14471;DHT22;7321;50.802;4.336;2022-08-01T09:07:52;25.40;99.90
14471;DHT22;7321;50.802;4.336;2022-08-01T09:10:18;25.50;99.90
14471;DHT22;7321;50.802;4.336;2022-08-01T09:13:19;25.50;99.90
14471;DHT22;7321;50.802;4.336;2022-08-01T09:15:50;25.40;99.90
14471;DHT22;7321;50.802;4.336;2022-08-01T09:18:36;25.40;99.90
14471;DHT22;7321;50.802;4.336;2022-08-01T09:21:11;25.50;99.90
14471;DHT22;7321;50.802;4.336;2022-08-01T09:23:43;25.70;99.90
14471;DHT22;7321;50.802;4.336;2022-08-01T09:26:11;25.60;99.90
14471;DHT22;7321;50.802;4.336;2022-08-01T09:28:37;25.70;99.90
14471;DHT22;7321;50.802;4.336;2022-08-01T09:31:08;25.70;99.90
14471;DHT22;7321;50.802;4.336;2022-08-01T09:33:50;25.90;99.90
14471;DHT22;7321;50.802;4.336;2022-08-01T09:36:16;25.80;99.90
14471;DHT22;7321;50.802;4.336;2022-08-01T09:38:43;25.90;99.90
14471;DHT22;7321;50.802;4.336;2022-08-01T09:41:08;26.10;99.90
14471;DHT22;7321;50.802;4.336;2022-08-01T09:43:37;26.40;99.90
14471;DHT22;7321;50.802;4.336;2022-08-01T09:46:10;26.20;99.90
14471;DHT22;7321;50.802;4.336;2022-08-01T09:49:01;26.00;99.90
14471;DHT22;7321;50.802;4.336;2022-08-01T09:51:35;26.00;99.90
14471;DHT22;7321;50.802;4.336;2022-08-01T09:54:05;26.30;99.90
14471;DHT22;7321;50.802;4.336;2022-08-01T09:56:42;26.20;99.90
14471;DHT22;7321;50.802;4.336;2022-08-01T09:59:08;26.10;99.90
14471;DHT22;7321;50.802;4.336;2022-08-01T10:01:52;25.70;99.90
14471;DHT22;7321;50.802;4.336;2022-08-01T10:04:20;25.60;99.90
14471;DHT22;7321;50.802;4.336;2022-08-01T10:06:49;25.70;99.90
14471;DHT22;7321;50.802;4.336;2022-08-01T10:09:44;25.80;99.90
14471;DHT22;7321;50.802;4.336;2022-08-01T10:12:15;26.00;99.90
14471;DHT22;7321;50.802;4.336;2022-08-01T10:14:43;26.20;99.90
14471;DHT22;7321;50.802;4.336;2022-08-01T10:17:12;26.40;99.90
14471;DHT22;7321;50.802;4.336;2022-08-01T10:19:40;26.80;99.90
14471;DHT22;7321;50.802;4.336;2022-08-01T10:22:13;27.10;99.90
14471;DHT22;7321;50.802;4.336;2022-08-01T10:24:44;27.40;99.90
14471;DHT22;7321;50.802;4.336;2022-08-01T10:27:14;27.40;99.90
14471;DHT22;7321;50.802;4.336;2022-08-01T10:29:54;27.10;99.90
14471;DHT22;7321;50.802;4.336;2022-08-01T10:32:21;26.90;99.90
14471;DHT22;7321;50.802;4.336;2022-08-01T10:34:49;26.90;99.90
14471;DHT22;7321;50.802;4.336;2022-08-01T10:37:15;26.90;99.90
14471;DHT22;7321;50.802;4.336;2022-08-01T10:39:43;26.90;99.90
14471;DHT22;7321;50.802;4.336;2022-08-01T10:42:11;26.80;99.90
14471;DHT22;7321;50.802;4.336;2022-08-01T10:44:38;26.90;99.90
14471;DHT22;7321;50.802;4.336;2022-08-01T10:47:12;27.10;99.90
14471;DHT22;7321;50.802;4.336;2022-08-01T10:49:47;27.10;99.90
14471;DHT22;7321;50.802;4.336;2022-08-01T10:52:17;27.10;99.90
14471;DHT22;7321;50.802;4.336;2022-08-01T10:54:44;27.10;99.90
14471;DHT22;7321;50.802;4.336;2022-08-01T10:57:10;27.30;99.90
14471;DHT22;7321;50.802;4.336;2022-08-01T10:59:51;27.20;99.90
14471;DHT22;7321;50.802;4.336;2022-08-01T11:02:27;27.40;99.90
14471;DHT22;7321;50.802;4.336;2022-08-01T11:05:09;27.40;99.90
14471;DHT22;7321;50.802;4.336;2022-08-01T11:07:47;27.80;99.90
14471;DHT22;7321;50.802;4.336;2022-08-01T11:10:24;27.90;99.90
14471;DHT22;7321;50.802;4.336;2022-08-01T11:12:51;28.00;99.90
14471;DHT22;7321;50.802;4.336;2022-08-01T11:15:19;28.10;99.90
14471;DHT22;7321;50.802;4.336;2022-08-01T11:17:53;27.60;99.90
14471;DHT22;7321;50.802;4.336;2022-08-01T11:20:24;27.60;99.90
14471;DHT22;7321;50.802;4.336;2022-08-01T11:30:45;27.10;99.90
14471;DHT22;7321;50.802;4.336;2022-08-01T11:33:12;27.20;99.90
14471;DHT22;7321;50.802;4.336;2022-08-01T11:41:31;27.90;99.90
14471;DHT22;7321;50.802;4.336;2022-08-01T11:46:59;27.70;99.90
14471;DHT22;7321;50.802;4.336;2022-08-01T11:52:23;27.80;99.90
14471;DHT22;7321;50.802;4.336;2022-08-01T11:54:54;28.00;99.90
14471;DHT22;7321;50.802;4.336;2022-08-01T11:59:51;27.60;99.90
14471;DHT22;7321;50.802;4.336;2022-08-01T12:02:20;27.70;99.90
14471;DHT22;7321;50.802;4.336;2022-08-01T12:05:00;27.60;99.90
14471;DHT22;7321;50.802;4.336;2022-08-01T12:07:29;27.70;99.90
14471;DHT22;7321;50.802;4.336;2022-08-01T12:13:01;27.40;99.90
14471;DHT22;7321;50.802;4.336;2022-08-01T12:15:32;27.30;99.90
14471;DHT22;7321;50.802;4.336;2022-08-01T12:18:03;27.10;99.90
14471;DHT22;7321;50.802;4.336;2022-08-01T12:20:32;27.40;99.90
14471;DHT22;7321;50.802;4.336;2022-08-01T12:23:08;27.60;99.90
14471;DHT22;7321;50.802;4.336;2022-08-01T12:25:35;27.40;99.90
14471;DHT22;7321;50.802;4.336;2022-08-01T12:28:06;27.60;99.90
14471;DHT22;7321;50.802;4.336;2022-08-01T12:30:33;28.10;99.90
14471;DHT22;7321;50.802;4.336;2022-08-01T12:33:07;28.30;99.90
14471;DHT22;7321;50.802;4.336;2022-08-01T12:35:34;28.30;99.90
14471;DHT22;7321;50.802;4.336;2022-08-01T12:40:33;28.30;99.90
14471;DHT22;7321;50.802;4.336;2022-08-01T12:43:03;28.10;99.90
14471;DHT22;7321;50.802;4.336;2022-08-01T12:45:39;27.90;99.90
14471;DHT22;7321;50.802;4.336;2022-08-01T12:48:13;28.00;99.90
14471;DHT22;7321;50.802;4.336;2022-08-01T12:50:43;28.10;99.90
14471;DHT22;7321;50.802;4.336;2022-08-01T12:53:10;28.60;99.90
14471;DHT22;7321;50.802;4.336;2022-08-01T12:55:46;29.00;99.90
14471;DHT22;7321;50.802;4.336;2022-08-01T12:58:13;28.90;99.90
14471;DHT22;7321;50.802;4.336;2022-08-01T13:00:41;28.70;99.90
14471;DHT22;7321;50.802;4.336;2022-08-01T13:03:18;28.40;99.90
14471;DHT22;7321;50.802;4.336;2022-08-01T13:05:50;28.30;99.90
14471;DHT22;7321;50.802;4.336;2022-08-01T13:08:16;28.20;99.90
14471;DHT22;7321;50.802;4.336;2022-08-01T13:10:43;28.20;99.90
14471;DHT22;7321;50.802;4.336;2022-08-01T13:13:10;28.20;99.90
14471;DHT22;7321;50.802;4.336;2022-08-01T13:15:38;28.40;99.90
14471;DHT22;7321;50.802;4.336;2022-08-01T13:18:27;28.70;99.90
14471;DHT22;7321;50.802;4.336;2022-08-01T13:26:44;28.50;99.90
14471;DHT22;7321;50.802;4.336;2022-08-01T13:29:13;28.20;99.90
14471;DHT22;7321;50.802;4.336;2022-08-01T13:31:40;27.90;99.90
14471;DHT22;7321;50.802;4.336;2022-08-01T13:34:07;27.70;99.90
14471;DHT22;7321;50.802;4.336;2022-08-01T13:36:33;27.70;99.90
14471;DHT22;7321;50.802;4.336;2022-08-01T13:38:59;27.70;99.90
14471;DHT22;7321;50.802;4.336;2022-08-01T13:41:44;27.60;99.90
14471;DHT22;7321;50.802;4.336;2022-08-01T13:44:10;27.80;99.90
14471;DHT22;7321;50.802;4.336;2022-08-01T13:46:38;28.00;99.90
14471;DHT22;7321;50.802;4.336;2022-08-01T13:49:05;27.90;99.90
14471;DHT22;7321;50.802;4.336;2022-08-01T13:51:32;27.70;99.90
14471;DHT22;7321;50.802;4.336;2022-08-01T13:53:58;27.80;99.90
14471;DHT22;7321;50.802;4.336;2022-08-01T13:56:24;27.50;99.90
14471;DHT22;7321;50.802;4.336;2022-08-01T13:58:50;27.40;99.90
14471;DHT22;7321;50.802;4.336;2022-08-01T14:01:17;27.40;99.90
14471;DHT22;7321;50.802;4.336;2022-08-01T14:03:42;27.20;99.90
14471;DHT22;7321;50.802;4.336;2022-08-01T14:06:08;27.20;99.90
14471;DHT22;7321;50.802;4.336;2022-08-01T14:08:34;27.10;99.90
14471;DHT22;7321;50.802;4.336;2022-08-01T14:11:06;27.20;99.90
14471;DHT22;7321;50.802;4.336;2022-08-01T14:13:32;27.40;99.90
14471;DHT22;7321;50.802;4.336;2022-08-01T14:15:59;27.60;99.90
14471;DHT22;7321;50.802;4.336;2022-08-01T14:18:25;27.70;99.90
14471;DHT22;7321;50.802;4.336;2022-08-01T14:20:52;27.50;99.90
14471;DHT22;7321;50.802;4.336;2022-08-01T14:23:17;27.50;99.90
14471;DHT22;7321;50.802;4.336;2022-08-01T14:25:43;27.50;99.90
14471;DHT22;7321;50.802;4.336;2022-08-01T14:28:09;27.50;99.90
14471;DHT22;7321;50.802;4.336;2022-08-01T14:30:36;27.50;99.90
14471;DHT22;7321;50.802;4.336;2022-08-01T14:33:02;27.40;99.90
14471;DHT22;7321;50.802;4.336;2022-08-01T14:35:28;27.50;99.90
14471;DHT22;7321;50.802;4.336;2022-08-01T14:37:54;27.50;99.90
14471;DHT22;7321;50.802;4.336;2022-08-01T14:40:20;27.30;99.90
14471;DHT22;7321;50.802;4.336;2022-08-01T14:42:46;27.30;99.90
14471;DHT22;7321;50.802;4.336;2022-08-01T14:45:13;27.30;99.90
14471;DHT22;7321;50.802;4.336;2022-08-01T14:47:41;27.50;99.90
14471;DHT22;7321;50.802;4.336;2022-08-01T14:50:11;27.60;99.90
14471;DHT22;7321;50.802;4.336;2022-08-01T14:52:38;27.70;99.90
14471;DHT22;7321;50.802;4.336;2022-08-01T14:55:08;27.40;99.90
14471;DHT22;7321;50.802;4.336;2022-08-01T14:57:35;27.40;99.90
14471;DHT22;7321;50.802;4.336;2022-08-01T15:00:05;27.50;99.90
14471;DHT22;7321;50.802;4.336;2022-08-01T15:02:32;27.60;99.90
14471;DHT22;7321;50.802;4.336;2022-08-01T15:04:58;27.60;99.90
14471;DHT22;7321;50.802;4.336;2022-08-01T15:07:23;27.70;99.90
14471;DHT22;7321;50.802;4.336;2022-08-01T15:09:49;27.80;99.90
14471;DHT22;7321;50.802;4.336;2022-08-01T15:12:15;27.80;99.90
14471;DHT22;7321;50.802;4.336;2022-08-01T15:14:44;27.80;99.90
14471;DHT22;7321;50.802;4.336;2022-08-01T15:17:22;28.10;99.90
14471;DHT22;7321;50.802;4.336;2022-08-01T15:19:52;28.40;99.90
14471;DHT22;7321;50.802;4.336;2022-08-01T15:22:20;28.50;99.90
14471;DHT22;7321;50.802;4.336;2022-08-01T15:24:50;28.70;99.90
14471;DHT22;7321;50.802;4.336;2022-08-01T15:27:17;29.00;99.90
14471;DHT22;7321;50.802;4.336;2022-08-01T15:29:43;29.20;99.90
14471;DHT22;7321;50.802;4.336;2022-08-01T15:32:09;29.20;99.90
14471;DHT22;7321;50.802;4.336;2022-08-01T15:34:35;29.60;99.90
14471;DHT22;7321;50.802;4.336;2022-08-01T15:37:02;29.70;99.90
14471;DHT22;7321;50.802;4.336;2022-08-01T15:39:28;30.10;99.90
14471;DHT22;7321;50.802;4.336;2022-08-01T15:41:54;30.00;99.90
14471;DHT22;7321;50.802;4.336;2022-08-01T15:44:26;30.10;99.90
14471;DHT22;7321;50.802;4.336;2022-08-01T15:46:52;30.00;99.90
14471;DHT22;7321;50.802;4.336;2022-08-01T15:49:24;30.10;99.90
14471;DHT22;7321;50.802;4.336;2022-08-01T15:51:53;30.00;99.90
14471;DHT22;7321;50.802;4.336;2022-08-01T15:54:19;30.00;99.90
14471;DHT22;7321;50.802;4.336;2022-08-01T15:56:45;30.20;99.90
14471;DHT22;7321;50.802;4.336;2022-08-01T15:59:12;30.40;99.90
14471;DHT22;7321;50.802;4.336;2022-08-01T16:01:38;30.50;99.90
14471;DHT22;7321;50.802;4.336;2022-08-01T16:04:13;30.50;99.90
14471;DHT22;7321;50.802;4.336;2022-08-01T16:06:51;30.50;99.90
14471;DHT22;7321;50.802;4.336;2022-08-01T16:09:17;30.50;99.90
14471;DHT22;7321;50.802;4.336;2022-08-01T16:11:43;30.60;99.90
14471;DHT22;7321;50.802;4.336;2022-08-01T16:14:12;30.60;99.90
14471;DHT22;7321;50.802;4.336;2022-08-01T16:16:37;30.10;99.90
14471;DHT22;7321;50.802;4.336;2022-08-01T16:19:03;30.00;99.90
14471;DHT22;7321;50.802;4.336;2022-08-01T16:21:30;29.90;99.90
14471;DHT22;7321;50.802;4.336;2022-08-01T16:23:56;30.00;99.90
14471;DHT22;7321;50.802;4.336;2022-08-01T16:26:22;30.40;99.90
14471;DHT22;7321;50.802;4.336;2022-08-01T16:28:47;30.50;99.90
14471;DHT22;7321;50.802;4.336;2022-08-01T16:31:17;30.40;99.90